Time;durP1;ratioP1;P1;durP2;ratioP2;P2;SDS_P1;SDS_P2;PMS_P1;PMS_P2;Temp;Humidity;BMP_temperature;BMP_pressure;BME280_temperature;BME280_humidity;BME280_pressure;Samples;Min_cycle;Max_cycle;Signal;HPM_P1;HPM_P2
2023/04/16 00:01:56;;;;;;;10.17;7.10;;;;;;;9.34;75.00;101840.75;6163810;28;20246;-73
2023/04/16 00:05:17;;;;;;;10.80;9.13;;;;;;;9.29;75.83;101835.88;6156649;28;20230;-73
2023/04/16 00:08:42;;;;;;;10.30;9.03;;;;;;;9.30;75.55;101834.91;6187327;28;20296;-73
2023/04/16 00:12:03;;;;;;;11.70;7.87;;;;;;;9.11;75.45;101840.13;6155128;28;20303;-74
2023/04/16 00:15:24;;;;;;;14.13;7.20;;;;;;;9.14;76.02;101840.69;6166807;28;20520;-75
2023/04/16 00:18:45;;;;;;;10.30;7.80;;;;;;;9.15;75.96;101845.00;6166720;28;20233;-74
2023/04/16 00:22:06;;;;;;;10.37;7.20;;;;;;;9.16;75.92;101837.94;6161903;28;20253;-73
2023/04/16 00:25:28;;;;;;;10.13;8.03;;;;;;;9.05;75.65;101838.84;6181586;28;20225;-74
2023/04/16 00:28:49;;;;;;;9.67;8.03;;;;;;;9.05;76.05;101835.38;6185939;28;20506;-74
2023/04/16 00:32:12;;;;;;;9.43;7.07;;;;;;;9.07;75.79;101836.09;6182577;28;20240;-75
2023/04/16 00:35:34;;;;;;;20.50;8.43;;;;;;;9.00;76.26;101834.97;6182709;28;20233;-73
2023/04/16 00:38:56;;;;;;;8.23;7.40;;;;;;;8.99;76.07;101839.41;6188909;28;20222;-76
2023/04/16 00:42:21;;;;;;;8.03;7.13;;;;;;;9.00;76.16;101841.09;6172762;28;20276;-73
2023/04/16 00:45:42;;;;;;;10.27;6.30;;;;;;;8.98;76.07;101844.81;6188175;28;21273;-73
2023/04/16 00:49:03;;;;;;;10.73;7.23;;;;;;;8.95;75.83;101842.44;6192774;28;20233;-74
2023/04/16 00:52:28;;;;;;;7.17;6.00;;;;;;;8.95;75.80;101838.00;6154901;28;20924;-74
2023/04/16 00:55:50;;;;;;;8.93;7.10;;;;;;;8.94;76.00;101840.78;6161530;28;21080;-74
2023/04/16 00:59:12;;;;;;;11.03;9.60;;;;;;;8.95;75.75;101838.00;6181881;28;20329;-75
2023/04/16 01:02:33;;;;;;;8.33;7.50;;;;;;;9.01;75.72;101828.75;6166227;28;20858;-73
2023/04/16 01:05:55;;;;;;;8.27;6.77;;;;;;;9.04;75.81;101831.91;6172172;28;20245;-73
2023/04/16 01:09:16;;;;;;;8.47;7.60;;;;;;;9.02;75.07;101833.06;6188003;28;20234;-73
2023/04/16 01:12:37;;;;;;;10.37;7.37;;;;;;;9.07;75.42;101841.34;6160726;28;21003;-73
2023/04/16 01:16:00;;;;;;;8.07;7.17;;;;;;;9.09;74.66;101844.69;6174856;28;20231;-74
2023/04/16 01:19:21;;;;;;;8.87;7.87;;;;;;;9.10;74.86;101841.09;6174000;28;20229;-74
2023/04/16 01:22:43;;;;;;;8.03;6.00;;;;;;;9.19;74.89;101848.19;6174154;28;20614;-73
2023/04/16 01:26:04;;;;;;;7.80;6.60;;;;;;;9.17;74.19;101850.97;6176706;28;20265;-74
2023/04/16 01:29:25;;;;;;;8.13;7.00;;;;;;;9.18;74.19;101855.28;6184326;28;20225;-73
2023/04/16 01:32:50;;;;;;;7.20;6.43;;;;;;;9.19;74.39;101859.56;6178616;28;21006;-73
2023/04/16 01:36:11;;;;;;;9.43;7.60;;;;;;;9.25;74.19;101861.69;6174701;28;20233;-74
2023/04/16 01:39:33;;;;;;;12.00;6.70;;;;;;;9.30;73.87;101863.03;6188195;28;20320;-74
2023/04/16 01:42:54;;;;;;;8.87;7.97;;;;;;;9.35;73.35;101866.94;6159136;28;20225;-74
2023/04/16 01:46:19;;;;;;;12.07;7.57;;;;;;;9.33;73.66;101873.31;6175929;28;20454;-74
2023/04/16 01:49:41;;;;;;;10.47;6.53;;;;;;;9.32;72.92;101872.47;6173941;28;20320;-73
2023/04/16 01:53:03;;;;;;;10.83;5.73;;;;;;;9.37;73.18;101872.91;6158713;28;20222;-73
2023/04/16 01:56:27;;;;;;;10.37;7.63;;;;;;;9.38;72.71;101879.03;6174092;28;20238;-73
2023/04/16 01:59:48;;;;;;;7.93;7.00;;;;;;;9.40;72.41;101877.09;6167278;28;20241;-73
2023/04/16 02:03:10;;;;;;;7.83;7.03;;;;;;;9.43;72.69;101882.94;6180845;28;20229;-73
2023/04/16 02:06:31;;;;;;;11.47;5.57;;;;;;;9.45;73.05;101885.44;6172561;28;20496;-73
2023/04/16 02:09:53;;;;;;;7.33;5.43;;;;;;;9.47;72.77;101891.41;6168962;28;20238;-74
2023/04/16 02:13:16;;;;;;;8.13;6.87;;;;;;;9.51;72.48;101882.22;6182140;28;20323;-74
2023/04/16 02:16:40;;;;;;;7.57;6.87;;;;;;;9.51;72.16;101903.31;6140213;28;20241;-74
2023/04/16 02:20:28;;;;;;;9.43;7.47;;;;;;;9.50;72.47;101891.94;6179190;28;20618;-75
2023/04/16 02:23:53;;;;;;;7.97;7.17;;;;;;;9.53;72.31;101886.41;6171433;28;20237;-74
2023/04/16 02:27:20;;;;;;;8.90;7.03;;;;;;;9.55;71.83;101894.16;6182243;28;20769;-73
2023/04/16 02:30:45;;;;;;;8.00;6.03;;;;;;;9.49;72.54;101892.06;6165307;28;20922;-73
2023/04/16 02:34:08;;;;;;;8.43;6.17;;;;;;;9.41;72.50;101900.66;6183507;28;20229;-73
2023/04/16 02:37:29;;;;;;;8.80;6.37;;;;;;;9.40;72.83;101896.38;6164128;28;20226;-74
2023/04/16 02:40:50;;;;;;;7.37;6.33;;;;;;;9.42;73.22;101897.06;6168154;28;20328;-75
2023/04/16 02:44:11;;;;;;;11.07;7.20;;;;;;;9.42;73.25;101896.25;6165454;28;20433;-74
2023/04/16 02:47:35;;;;;;;7.80;6.70;;;;;;;9.43;73.00;101893.47;6151229;28;20226;-73
2023/04/16 02:50:56;;;;;;;7.53;6.73;;;;;;;9.50;72.90;101896.38;6176528;28;20238;-74
2023/04/16 02:54:17;;;;;;;8.97;6.50;;;;;;;9.48;72.95;101900.97;6186817;28;20241;-74
2023/04/16 02:57:38;;;;;;;9.27;8.00;;;;;;;9.50;72.93;101897.22;6184923;28;20245;-73
2023/04/16 03:00:58;;;;;;;9.10;6.07;;;;;;;9.53;72.72;101901.38;6179309;28;20245;-74
2023/04/16 03:04:20;;;;;;;8.43;6.80;;;;;;;9.54;72.65;101903.03;6168786;28;20602;-73
2023/04/16 03:07:43;;;;;;;10.67;6.67;;;;;;;9.61;72.25;101904.19;6147716;28;20237;-73
2023/04/16 03:11:07;;;;;;;6.80;5.50;;;;;;;9.55;72.86;101900.28;6166139;28;20238;-73
2023/04/16 03:14:28;;;;;;;9.07;6.30;;;;;;;9.61;72.92;101906.81;6185772;28;21009;-74
2023/04/16 03:17:49;;;;;;;7.33;6.27;;;;;;;9.66;72.72;101907.25;6165539;28;20534;-74
2023/04/16 03:21:11;;;;;;;7.17;6.47;;;;;;;9.65;72.71;101915.28;6172428;28;20238;-74
2023/04/16 03:24:32;;;;;;;8.33;7.00;;;;;;;9.66;72.98;101914.31;6186654;28;20238;-74
2023/04/16 03:27:53;;;;;;;8.57;7.77;;;;;;;9.68;72.80;101915.84;6179798;28;20237;-74
2023/04/16 03:31:15;;;;;;;10.43;6.20;;;;;;;9.69;72.50;101911.41;6183014;28;21416;-74
2023/04/16 03:34:36;;;;;;;8.30;7.23;;;;;;;9.71;72.88;101918.22;6182171;28;20892;-74
2023/04/16 03:37:58;;;;;;;9.40;7.10;;;;;;;9.70;72.99;101921.00;6167026;28;20504;-74
2023/04/16 03:41:19;;;;;;;11.67;6.40;;;;;;;9.71;72.98;101912.13;6177295;28;20533;-74
2023/04/16 03:44:40;;;;;;;11.67;6.73;;;;;;;9.70;73.13;101919.19;6191950;28;20239;-74
2023/04/16 03:48:05;;;;;;;10.33;7.50;;;;;;;9.72;73.34;101917.22;6164511;28;20626;-74
2023/04/16 03:51:26;;;;;;;11.60;9.57;;;;;;;9.75;73.00;101922.22;6182213;28;20241;-73
2023/04/16 03:54:48;;;;;;;8.83;6.80;;;;;;;9.71;73.22;101920.03;6194494;28;20772;-73
2023/04/16 03:58:19;;;;;;;10.33;7.63;;;;;;;9.71;73.19;101923.50;6128546;28;20247;-73
2023/04/16 04:01:41;;;;;;;9.17;7.57;;;;;;;9.72;73.58;101914.59;6152781;28;20265;-74
2023/04/16 04:05:02;;;;;;;11.10;8.80;;;;;;;9.74;73.60;101917.09;6185868;28;20256;-74
2023/04/16 04:08:28;;;;;;;9.70;8.43;;;;;;;9.74;73.72;101920.56;6135927;28;20237;-74
2023/04/16 04:11:50;;;;;;;9.73;6.47;;;;;;;9.76;73.63;101920.44;6168089;28;20240;-73
2023/04/16 04:15:12;;;;;;;9.03;6.87;;;;;;;9.72;74.08;101919.03;6182854;28;20244;-74
2023/04/16 04:18:33;;;;;;;8.47;7.33;;;;;;;9.73;74.06;101924.16;6172395;28;20306;-73
2023/04/16 04:21:54;;;;;;;12.67;7.93;;;;;;;9.74;73.56;101925.84;6160445;28;20241;-73
2023/04/16 04:25:16;;;;;;;8.03;7.13;;;;;;;9.75;73.38;101934.56;6175917;28;20225;-74
2023/04/16 04:28:38;;;;;;;9.17;8.13;;;;;;;9.73;73.80;101939.16;6194118;28;20320;-74
2023/04/16 04:32:00;;;;;;;9.23;7.03;;;;;;;9.74;73.93;101938.19;6176057;28;20248;-75
2023/04/16 04:35:21;;;;;;;9.20;8.27;;;;;;;9.73;73.91;101950.53;6177502;28;20229;-74
2023/04/16 04:38:42;;;;;;;10.73;8.00;;;;;;;9.72;73.87;101950.66;6173923;28;20602;-74
2023/04/16 04:42:03;;;;;;;9.53;7.13;;;;;;;9.77;73.85;101948.47;6164530;28;20566;-74
2023/04/16 04:45:25;;;;;;;8.33;6.53;;;;;;;9.73;73.52;101954.97;6173523;28;20849;-74
2023/04/16 04:48:47;;;;;;;10.30;7.33;;;;;;;9.65;74.13;101946.94;6189375;28;21456;-74
2023/04/16 04:52:10;;;;;;;8.57;7.27;;;;;;;9.63;73.98;101949.69;6174998;28;20233;-74
2023/04/16 04:55:31;;;;;;;10.50;8.23;;;;;;;9.54;74.41;101951.31;6164650;28;20245;-73
2023/04/16 04:58:52;;;;;;;11.97;10.03;;;;;;;9.65;74.13;101950.41;6154864;28;20241;-74
2023/04/16 05:02:15;;;;;;;8.50;7.63;;;;;;;9.72;74.15;101950.66;6169217;28;20702;-74
2023/04/16 05:05:37;;;;;;;8.53;6.43;;;;;;;9.79;73.55;101950.00;6179682;28;20236;-73
2023/04/16 05:08:57;;;;;;;11.60;8.53;;;;;;;9.82;74.10;101960.28;6195184;28;20260;-73
2023/04/16 05:12:18;;;;;;;11.33;8.33;;;;;;;9.89;73.92;101956.13;6175061;28;20586;-73
2023/04/16 05:15:39;;;;;;;8.87;7.93;;;;;;;9.96;73.32;101969.59;6183465;28;20233;-73
2023/04/16 05:19:02;;;;;;;8.10;6.60;;;;;;;9.93;73.39;101962.81;6193868;28;20249;-74
2023/04/16 05:22:22;;;;;;;8.77;7.67;;;;;;;9.88;73.28;101969.44;6170694;28;20229;-73
2023/04/16 05:25:43;;;;;;;9.23;7.87;;;;;;;9.84;73.47;101966.25;6165257;28;20697;-74
2023/04/16 05:29:06;;;;;;;8.33;7.53;;;;;;;9.91;73.30;101972.66;6180744;28;20237;-74
2023/04/16 05:32:27;;;;;;;9.57;7.73;;;;;;;9.98;73.32;101972.91;6163507;28;20603;-74
2023/04/16 05:35:50;;;;;;;10.07;7.57;;;;;;;10.06;72.98;101981.00;6180730;28;20233;-73
2023/04/16 05:39:11;;;;;;;10.40;7.63;;;;;;;10.06;72.90;101990.72;6191040;28;20233;-74
2023/04/16 05:42:32;;;;;;;10.27;7.47;;;;;;;10.08;73.05;101994.06;6164912;28;20316;-74
2023/04/16 05:45:52;;;;;;;9.10;7.63;;;;;;;10.08;73.25;101984.34;6172293;28;20237;-73
2023/04/16 05:49:13;;;;;;;10.60;9.13;;;;;;;10.04;73.04;101996.13;6183702;28;20328;-72
2023/04/16 05:52:35;;;;;;;11.60;8.70;;;;;;;9.97;73.39;101999.44;6178989;28;20232;-74
2023/04/16 05:55:56;;;;;;;8.97;6.50;;;;;;;10.03;73.52;102001.53;6182379;28;20233;-73
2023/04/16 05:59:17;;;;;;;10.00;8.07;;;;;;;10.03;73.16;102009.44;6198045;28;20308;-74
2023/04/16 06:02:37;;;;;;;10.47;9.23;;;;;;;10.11;73.20;102013.09;6176652;28;20233;-75
2023/04/16 06:05:58;;;;;;;8.00;7.20;;;;;;;10.10;73.09;102006.13;6175884;28;20264;-73
2023/04/16 06:09:20;;;;;;;10.97;7.93;;;;;;;10.04;73.09;102009.31;6183696;28;20614;-75
2023/04/16 06:12:41;;;;;;;8.00;7.17;;;;;;;10.13;73.09;102020.88;6183103;28;20240;-74
2023/04/16 06:16:02;;;;;;;8.47;7.57;;;;;;;10.16;73.27;102016.16;6171465;28;20230;-74
2023/04/16 06:19:23;;;;;;;9.90;7.57;;;;;;;10.20;72.76;102014.06;6189722;28;21167;-74
2023/04/16 06:22:43;;;;;;;7.83;7.13;;;;;;;10.27;72.25;102013.41;6166449;28;20233;-75
2023/04/16 06:26:06;;;;;;;8.77;7.87;;;;;;;10.28;72.36;102023.00;6162675;28;20234;-74
2023/04/16 06:29:27;;;;;;;8.10;7.30;;;;;;;10.33;72.16;102017.31;6177350;28;20225;-72
2023/04/16 06:32:49;;;;;;;9.37;6.60;;;;;;;10.42;71.96;102020.91;6172361;28;20294;-74
2023/04/16 06:36:11;;;;;;;11.20;8.23;;;;;;;10.47;71.65;102026.59;6164504;28;20324;-74
2023/04/16 06:39:32;;;;;;;10.77;8.70;;;;;;;10.45;71.71;102034.66;6172784;28;20708;-74
2023/04/16 06:42:54;;;;;;;9.23;7.17;;;;;;;10.45;71.63;102034.66;6180705;28;20233;-74
2023/04/16 06:46:14;;;;;;;9.47;7.00;;;;;;;10.45;71.53;102033.81;6177734;28;20245;-74
2023/04/16 06:49:35;;;;;;;8.30;7.33;;;;;;;10.48;71.57;102036.19;6186083;28;21734;-75
2023/04/16 06:52:56;;;;;;;10.87;9.80;;;;;;;10.49;71.51;102037.84;6181196;28;20250;-75
2023/04/16 06:56:17;;;;;;;9.03;7.93;;;;;;;10.50;71.27;102043.00;6175524;28;20225;-74
2023/04/16 06:59:39;;;;;;;10.57;8.43;;;;;;;10.53;71.63;102041.91;6184467;28;20564;-73
2023/04/16 07:03:02;;;;;;;12.50;9.07;;;;;;;10.60;71.10;102048.28;6167919;28;20233;-75
2023/04/16 07:06:23;;;;;;;11.10;9.17;;;;;;;10.69;70.92;102050.09;6174472;28;20567;-73
2023/04/16 07:09:43;;;;;;;10.07;8.47;;;;;;;10.76;70.63;102053.00;6188679;28;20229;-74
2023/04/16 07:13:04;;;;;;;15.80;8.13;;;;;;;10.83;70.04;102054.97;6180580;28;20599;-73
2023/04/16 07:16:26;;;;;;;9.77;6.80;;;;;;;10.86;69.87;102053.81;6178700;28;20240;-75
2023/04/16 07:19:47;;;;;;;11.33;6.90;;;;;;;10.89;70.00;102059.66;6191422;28;20320;-74
2023/04/16 07:23:08;;;;;;;9.63;8.47;;;;;;;11.08;69.49;102064.06;6168235;28;20319;-75
2023/04/16 07:26:28;;;;;;;8.43;7.13;;;;;;;10.99;68.93;102064.09;6168908;28;20234;-74
2023/04/16 07:29:53;;;;;;;9.20;7.90;;;;;;;10.98;69.19;102063.28;6191838;28;20252;-74
2023/04/16 07:33:16;;;;;;;11.00;7.70;;;;;;;11.02;69.34;102061.19;6161042;28;20233;-74
2023/04/16 07:36:37;;;;;;;6.93;6.17;;;;;;;11.04;69.38;102070.66;6155729;28;20808;-74
2023/04/16 07:39:59;;;;;;;8.20;6.37;;;;;;;11.06;68.93;102078.44;6180046;28;20225;-74
2023/04/16 07:43:20;;;;;;;7.60;6.90;;;;;;;11.04;68.85;102073.28;6175135;28;20618;-74
2023/04/16 07:46:41;;;;;;;8.63;6.10;;;;;;;11.38;74.27;102076.25;6151602;28;20230;-77
2023/04/16 07:50:03;;;;;;;8.93;7.27;;;;;;;11.88;72.48;102068.03;6179585;28;20238;-77
2023/04/16 07:53:24;;;;;;;14.43;8.83;;;;;;;11.82;70.69;102080.03;6177912;28;21658;-77
2023/04/16 07:56:45;;;;;;;7.90;6.67;;;;;;;12.20;72.04;102081.63;6163225;28;20229;-76
2023/04/16 08:00:08;;;;;;;12.43;10.20;;;;;;;12.49;73.46;102078.78;6186056;28;20233;-78
2023/04/16 08:03:34;;;;;;;16.07;12.97;;;;;;;12.55;66.48;102083.50;6174656;28;20319;-73
2023/04/16 08:06:56;;;;;;;21.33;18.93;;;;;;;13.10;69.00;102091.25;6157430;28;20411;-79
2023/04/16 08:10:17;;;;;;;109.33;99.43;;;;;;;13.08;71.91;102089.75;6178209;28;20625;-70
2023/04/16 08:13:38;;;;;;;184.10;120.60;;;;;;;12.95;67.86;102095.44;6191500;28;20237;-70
2023/04/16 08:16:59;;;;;;;119.73;111.73;;;;;;;13.50;69.00;102092.53;6161812;28;20241;-72
2023/04/16 08:20:20;;;;;;;280.77;229.60;;;;;;;13.84;64.22;102092.53;6181515;28;20238;-79
2023/04/16 08:23:42;;;;;;;40.43;29.40;;;;;;;13.56;64.45;102100.69;6190472;28;20240;-72
2023/04/16 08:27:03;;;;;;;12.97;8.67;;;;;;;13.11;60.98;102102.66;6155928;28;20234;-77
2023/04/16 08:30:24;;;;;;;9.70;7.47;;;;;;;12.59;62.21;102105.22;6180936;28;20898;-76
2023/04/16 08:33:44;;;;;;;7.10;6.40;;;;;;;12.50;63.05;102112.25;6174696;28;20613;-77
2023/04/16 08:37:05;;;;;;;9.97;6.87;;;;;;;12.47;63.53;102114.34;6166806;28;20237;-76
2023/04/16 08:40:29;;;;;;;9.00;6.83;;;;;;;12.29;63.79;102116.97;6173897;28;20245;-76
2023/04/16 08:43:54;;;;;;;7.00;6.40;;;;;;;12.15;63.84;102123.63;6175352;28;20328;-76
2023/04/16 08:47:16;;;;;;;9.80;7.13;;;;;;;12.17;64.36;102129.59;6152236;28;21469;-77
2023/04/16 08:50:37;;;;;;;8.57;6.43;;;;;;;12.10;63.93;102128.50;6169488;28;20507;-78
2023/04/16 08:54:02;;;;;;;8.43;6.17;;;;;;;12.07;64.35;102131.44;6183672;28;20233;-78
2023/04/16 08:57:30;;;;;;;7.73;6.30;;;;;;;11.99;64.93;102129.50;6154168;28;20230;-75
2023/04/16 09:00:51;;;;;;;9.63;6.73;;;;;;;12.09;65.02;102132.13;6177455;28;20623;-76
2023/04/16 09:04:15;;;;;;;7.73;6.23;;;;;;;12.21;64.32;102128.28;6179611;28;20241;-77
2023/04/16 09:07:36;;;;;;;9.10;7.33;;;;;;;12.03;64.78;102132.72;6163184;28;20257;-76
2023/04/16 09:10:59;;;;;;;8.10;7.30;;;;;;;11.98;65.36;102127.00;6170258;28;20634;-77
2023/04/16 09:14:22;;;;;;;9.10;6.80;;;;;;;11.93;65.30;102129.28;6183135;28;20232;-77
2023/04/16 09:17:42;;;;;;;7.63;6.13;;;;;;;11.89;65.13;102131.38;6177381;28;20233;-78
2023/04/16 09:21:04;;;;;;;5.17;4.67;;;;;;;12.12;64.75;102131.84;6172200;28;20237;-76
2023/04/16 09:24:25;;;;;;;11.50;8.53;;;;;;;12.23;64.21;102136.09;6194857;28;20229;-77
2023/04/16 09:27:49;;;;;;;7.70;6.47;;;;;;;12.31;63.70;102152.09;6172815;28;20237;-77
2023/04/16 09:31:13;;;;;;;7.07;6.00;;;;;;;12.46;63.60;102147.94;6187171;28;20226;-77
2023/04/16 09:34:35;;;;;;;9.20;7.33;;;;;;;12.46;63.25;102157.69;6195676;28;20240;-79
2023/04/16 09:37:57;;;;;;;10.00;7.50;;;;;;;12.34;64.11;102149.13;6162784;28;20541;-77
2023/04/16 09:41:19;;;;;;;8.70;6.07;;;;;;;12.51;64.11;102153.63;6165278;28;20513;-80
2023/04/16 09:44:40;;;;;;;6.57;5.80;;;;;;;12.50;63.62;102154.63;6182738;28;20237;-74
2023/04/16 09:48:06;;;;;;;7.67;6.53;;;;;;;12.73;62.76;102157.66;6153706;28;20307;-72
2023/04/16 09:51:36;;;;;;;6.13;5.53;;;;;;;12.69;63.29;102169.53;6159917;28;20238;-74
2023/04/16 09:54:57;;;;;;;11.73;7.47;;;;;;;12.66;62.89;102168.03;6192278;28;20230;-73
2023/04/16 09:58:19;;;;;;;10.10;6.13;;;;;;;12.63;62.71;102168.34;6173585;28;20233;-76
2023/04/16 10:01:39;;;;;;;14.30;10.43;;;;;;;12.61;62.87;102167.66;6177584;28;20698;-76
2023/04/16 10:05:02;;;;;;;11.47;7.90;;;;;;;12.69;62.89;102177.50;6177425;28;20241;-77
2023/04/16 10:08:24;;;;;;;7.23;5.93;;;;;;;13.04;62.05;102170.56;6178062;28;20348;-77
2023/04/16 10:11:45;;;;;;;8.17;5.50;;;;;;;13.24;61.57;102169.44;6182885;28;20228;-76
2023/04/16 10:15:07;;;;;;;8.17;6.93;;;;;;;13.20;60.74;102176.03;6212368;28;20585;-77
2023/04/16 10:18:29;;;;;;;7.37;6.67;;;;;;;13.21;60.52;102178.53;6207588;28;20543;-76
2023/04/16 10:21:51;;;;;;;9.63;5.53;;;;;;;13.26;61.15;102178.91;6194195;28;20600;-77
2023/04/16 10:25:12;;;;;;;6.63;5.97;;;;;;;13.21;60.88;102170.56;6209277;28;20237;-77
2023/04/16 10:28:35;;;;;;;9.07;6.53;;;;;;;13.50;60.29;102174.78;6203255;28;20278;-76
2023/04/16 10:31:57;;;;;;;6.73;6.13;;;;;;;13.51;59.71;102179.94;6160864;28;20236;-75
2023/04/16 10:35:19;;;;;;;6.17;5.70;;;;;;;13.52;60.88;102180.75;6185112;28;20314;-76
2023/04/16 10:38:45;;;;;;;7.63;6.93;;;;;;;13.28;62.28;102192.00;6203248;28;20286;-70
2023/04/16 10:42:08;;;;;;;6.57;5.53;;;;;;;13.18;62.67;102197.38;6187264;28;20633;-70
2023/04/16 10:45:36;;;;;;;7.83;7.00;;;;;;;13.42;62.18;102193.28;6185032;28;20234;-69
2023/04/16 10:49:01;;;;;;;9.63;6.73;;;;;;;13.51;61.60;102200.31;6198979;28;20228;-70
2023/04/16 10:52:23;;;;;;;8.77;6.77;;;;;;;13.56;61.10;102198.00;6173746;28;20246;-70
2023/04/16 10:55:58;;;;;;;10.73;6.33;;;;;;;13.52;60.79;102191.38;6193355;28;20728;-69
2023/04/16 10:59:20;;;;;;;6.43;5.87;;;;;;;13.47;61.13;102204.25;6195838;28;20864;-69
2023/04/16 11:02:41;;;;;;;5.90;5.40;;;;;;;13.57;61.41;102207.63;6169583;28;20234;-70
2023/04/16 11:06:13;;;;;;;7.77;6.63;;;;;;;13.72;60.59;102203.47;6180991;28;20245;-70
2023/04/16 11:09:58;;;;;;;6.87;5.23;;;;;;;13.59;60.47;102206.50;6183347;28;20225;-70
2023/04/16 11:13:20;;;;;;;7.07;6.37;;;;;;;13.30;60.95;102206.78;6155175;28;20234;-76
2023/04/16 11:16:41;;;;;;;7.90;7.13;;;;;;;13.11;61.44;102208.72;6157118;28;20233;-75
2023/04/16 11:20:03;;;;;;;10.20;6.47;;;;;;;12.86;62.09;102208.50;6196487;28;20793;-76
2023/04/16 11:23:24;;;;;;;6.47;5.87;;;;;;;12.82;62.59;102215.06;6193318;28;20237;-77
2023/04/16 11:26:45;;;;;;;6.60;5.37;;;;;;;12.65;62.99;102219.34;6178022;28;20233;-76
2023/04/16 11:30:09;;;;;;;6.30;5.73;;;;;;;12.68;63.30;102219.03;6196787;28;20245;-76
2023/04/16 11:33:31;;;;;;;7.93;7.13;;;;;;;12.71;63.23;102220.56;6188818;28;20248;-77
2023/04/16 11:36:52;;;;;;;7.60;5.57;;;;;;;12.65;63.37;102218.53;6181625;28;20574;-74
2023/04/16 11:40:13;;;;;;;8.37;5.83;;;;;;;12.62;63.55;102214.38;6199653;28;20229;-76
2023/04/16 11:43:34;;;;;;;5.30;4.80;;;;;;;12.49;64.08;102221.81;6193881;28;20499;-77
2023/04/16 11:46:56;;;;;;;6.60;6.00;;;;;;;12.55;63.56;102215.94;6190785;28;20229;-75
2023/04/16 11:50:20;;;;;;;6.13;5.53;;;;;;;12.63;63.40;102223.97;6191320;28;20698;-75
2023/04/16 11:53:52;;;;;;;9.07;6.07;;;;;;;12.53;62.86;102228.47;6195795;28;20229;-76
2023/04/16 11:57:13;;;;;;;6.87;6.17;;;;;;;12.68;63.40;102231.47;6172309;28;20328;-76
2023/04/16 12:00:34;;;;;;;6.90;6.20;;;;;;;12.80;62.86;102229.44;6189702;28;20237;-77
2023/04/16 12:04:01;;;;;;;6.67;6.07;;;;;;;12.83;62.27;102230.00;6188293;28;20229;-75
2023/04/16 12:07:26;;;;;;;7.13;5.03;;;;;;;12.84;62.52;102231.66;6168249;28;20221;-76
2023/04/16 12:10:54;;;;;;;6.13;5.63;;;;;;;12.83;62.59;102240.59;6169287;28;20610;-75
2023/04/16 12:14:15;;;;;;;7.40;6.70;;;;;;;12.60;63.21;102244.63;6200929;28;20334;-75
2023/04/16 12:17:37;;;;;;;7.23;6.63;;;;;;;12.68;63.30;102247.34;6181075;28;20225;-74
2023/04/16 12:21:04;;;;;;;6.00;5.37;;;;;;;12.53;63.17;102251.47;6197867;28;20237;-76
2023/04/16 12:24:26;;;;;;;5.57;5.03;;;;;;;12.59;62.74;102253.56;6204799;28;20260;-75
2023/04/16 12:27:49;;;;;;;6.70;6.10;;;;;;;12.67;62.87;102254.47;6189416;28;20626;-75
2023/04/16 12:31:10;;;;;;;8.00;5.90;;;;;;;12.75;63.13;102251.09;6187530;28;20246;-75
2023/04/16 12:34:34;;;;;;;6.53;5.90;;;;;;;12.67;62.42;102257.13;6198149;28;20229;-76
2023/04/16 12:37:56;;;;;;;6.33;5.70;;;;;;;12.84;62.20;102250.22;6199525;28;20259;-74
2023/04/16 12:41:17;;;;;;;7.83;6.30;;;;;;;13.01;61.61;102251.22;6180300;28;20321;-75
2023/04/16 12:44:38;;;;;;;7.40;5.70;;;;;;;13.04;61.33;102253.56;6195244;28;20611;-75
2023/04/16 12:47:59;;;;;;;6.57;5.70;;;;;;;12.96;61.25;102245.53;6172600;28;20229;-77
2023/04/16 12:51:20;;;;;;;5.30;4.27;;;;;;;12.95;61.46;102252.63;6180630;28;20605;-75
2023/04/16 12:54:42;;;;;;;8.07;6.57;;;;;;;12.76;62.01;102243.97;6194051;28;20645;-78
2023/04/16 12:58:03;;;;;;;6.13;5.60;;;;;;;12.67;61.98;102246.53;6191166;28;20233;-74
2023/04/16 13:01:24;;;;;;;6.80;5.17;;;;;;;12.77;64.25;102245.66;6176873;28;20242;-69
2023/04/16 13:04:45;;;;;;;5.63;5.07;;;;;;;12.94;63.99;102248.31;6190765;28;20248;-69
2023/04/16 13:08:06;;;;;;;6.00;5.50;;;;;;;13.02;63.78;102247.56;6186183;28;20249;-69
2023/04/16 13:11:28;;;;;;;5.40;4.43;;;;;;;13.01;62.95;102253.88;6186519;28;20569;-68
2023/04/16 13:14:49;;;;;;;8.13;5.33;;;;;;;12.91;62.50;102251.25;6201242;28;20532;-70
2023/04/16 13:18:10;;;;;;;7.43;6.73;;;;;;;12.89;63.12;102257.69;6177429;28;20241;-67
2023/04/16 13:21:31;;;;;;;6.57;5.97;;;;;;;12.96;64.03;102266.72;6184656;28;20237;-69
2023/04/16 13:24:52;;;;;;;6.93;4.87;;;;;;;12.98;63.97;102264.75;6185572;28;20241;-68
2023/04/16 13:28:14;;;;;;;10.67;6.50;;;;;;;12.81;62.49;102266.41;6170224;28;20256;-75
2023/04/16 13:31:35;;;;;;;8.13;7.00;;;;;;;12.65;62.82;102274.16;6164673;28;20276;-75
2023/04/16 13:34:56;;;;;;;33.27;7.87;;;;;;;12.51;62.67;102274.63;6201141;28;20234;-74
2023/04/16 13:38:18;;;;;;;8.03;7.23;;;;;;;12.48;63.13;102270.44;6178978;28;20229;-76
2023/04/16 13:41:39;;;;;;;5.97;5.37;;;;;;;12.47;63.12;102267.94;6143757;28;20226;-74
2023/04/16 13:45:01;;;;;;;7.77;6.47;;;;;;;12.31;62.97;102272.06;6185531;28;20266;-75
2023/04/16 13:48:22;;;;;;;8.00;5.43;;;;;;;12.45;63.16;102269.91;6169730;28;20340;-76
2023/04/16 13:51:43;;;;;;;7.23;6.47;;;;;;;12.42;63.67;102271.06;6159701;28;20245;-74
2023/04/16 13:55:05;;;;;;;5.10;4.67;;;;;;;12.45;63.34;102259.31;6195845;28;20252;-76
2023/04/16 13:58:26;;;;;;;7.67;6.50;;;;;;;12.58;63.13;102262.47;6190769;28;20236;-75
2023/04/16 14:01:48;;;;;;;7.43;5.73;;;;;;;12.63;63.10;102262.88;6195374;28;20237;-74
2023/04/16 14:05:09;;;;;;;5.87;5.27;;;;;;;12.65;62.97;102256.41;6200764;28;20670;-76
2023/04/16 14:08:30;;;;;;;8.13;6.00;;;;;;;12.80;62.66;102259.44;6196602;28;20233;-74
2023/04/16 14:11:51;;;;;;;6.20;5.07;;;;;;;12.88;62.45;102258.66;6191589;28;20241;-74
2023/04/16 14:15:14;;;;;;;7.37;6.60;;;;;;;12.83;62.47;102261.78;6197144;28;20311;-73
2023/04/16 14:18:40;;;;;;;9.50;6.60;;;;;;;12.70;63.11;102263.94;6188294;28;20249;-74
2023/04/16 14:22:01;;;;;;;8.67;6.60;;;;;;;12.69;63.21;102267.56;6183100;28;20552;-74
2023/04/16 14:25:23;;;;;;;7.90;6.00;;;;;;;12.54;63.09;102267.22;6200238;28;20546;-75
2023/04/16 14:28:45;;;;;;;6.77;6.07;;;;;;;12.57;63.05;102269.59;6205581;28;20336;-76
2023/04/16 14:32:06;;;;;;;6.20;5.53;;;;;;;12.66;62.88;102265.22;6163227;28;20238;-75
2023/04/16 14:35:28;;;;;;;5.83;5.23;;;;;;;12.59;63.05;102272.94;6157898;28;20238;-75
2023/04/16 14:38:49;;;;;;;8.33;6.43;;;;;;;12.59;63.43;102272.94;6173883;28;20240;-74
2023/04/16 14:42:10;;;;;;;9.80;7.33;;;;;;;12.57;63.74;102266.94;6176480;28;20222;-76
2023/04/16 14:45:31;;;;;;;6.27;5.57;;;;;;;12.43;63.78;102271.88;6174486;28;20632;-76
2023/04/16 14:48:52;;;;;;;6.40;5.73;;;;;;;12.49;63.80;102276.59;6180363;28;20985;-77
2023/04/16 14:52:14;;;;;;;7.07;6.37;;;;;;;12.50;70.19;102278.25;6183597;28;21459;-77
2023/04/16 14:55:35;;;;;;;6.20;5.50;;;;;;;13.07;69.70;102269.19;6176078;28;20236;-77
2023/04/16 14:58:56;;;;;;;7.23;6.53;;;;;;;13.39;64.91;102271.31;6172783;28;20819;-75
2023/04/16 15:02:17;;;;;;;9.23;7.67;;;;;;;13.05;62.45;102270.31;6167760;28;20837;-77
2023/04/16 15:05:49;;;;;;;11.23;7.17;;;;;;;12.70;62.58;102282.47;6220267;28;22535;-75
2023/04/16 15:09:10;;;;;;;7.40;6.67;;;;;;;12.70;62.87;102290.44;6262026;28;20597;-76
2023/04/16 15:12:31;;;;;;;8.73;6.57;;;;;;;12.73;63.13;102284.00;6249861;28;20255;-74
2023/04/16 15:15:52;;;;;;;8.13;7.00;;;;;;;12.69;63.22;102283.47;6232129;28;20258;-76
2023/04/16 15:19:13;;;;;;;8.17;7.47;;;;;;;12.56;63.59;102281.16;6259817;28;20244;-76
2023/04/16 15:22:36;;;;;;;8.90;7.40;;;;;;;12.51;64.00;102279.94;6259170;28;20267;-76
2023/04/16 15:25:57;;;;;;;8.50;7.67;;;;;;;12.50;63.99;102281.75;6223015;28;20235;-77
2023/04/16 15:29:17;;;;;;;7.00;6.37;;;;;;;12.60;64.16;102287.84;6264670;28;20223;-75
2023/04/16 15:32:38;;;;;;;9.07;7.37;;;;;;;12.56;64.45;102286.47;6241971;28;20219;-75
2023/04/16 15:35:59;;;;;;;7.07;6.43;;;;;;;12.59;64.02;102282.69;6247916;28;20447;-75
2023/04/16 15:39:22;;;;;;;7.43;6.63;;;;;;;12.67;64.33;102288.91;6262858;28;20224;-77